createdAt,value
2022-10-28T00:01:38.097Z,12.75
2022-10-28T00:04:04.642Z,12.78
2022-10-28T00:06:34.447Z,12.86
2022-10-28T00:09:01.465Z,12.80
2022-10-28T00:11:30.725Z,12.72
2022-10-28T00:14:00.838Z,12.70
2022-10-28T00:16:29.918Z,12.79
2022-10-28T00:18:58.347Z,12.88
2022-10-28T00:21:27.490Z,12.75
2022-10-28T00:23:54.338Z,12.81
2022-10-28T00:26:23.914Z,12.97
2022-10-28T00:28:55.202Z,13.15
2022-10-28T00:31:24.406Z,13.22
2022-10-28T00:33:51.732Z,13.23
2022-10-28T00:36:20.597Z,13.45
2022-10-28T00:38:48.475Z,13.42
2022-10-28T00:41:23.092Z,13.45
2022-10-28T00:43:51.924Z,13.65
2022-10-28T00:46:45.256Z,13.63
2022-10-28T00:49:16.745Z,13.62
2022-10-28T00:51:46.073Z,13.52
2022-10-28T00:54:13.770Z,13.47
2022-10-28T00:56:46.235Z,13.73
2022-10-28T00:59:27.051Z,13.61
2022-10-28T01:01:54.454Z,13.79
2022-10-28T01:04:21.914Z,13.96
2022-10-28T01:06:48.837Z,13.82
2022-10-28T01:09:15.247Z,13.87
2022-10-28T01:11:59.772Z,13.90
2022-10-28T01:14:36.673Z,13.89
2022-10-28T01:17:17.163Z,13.82
2022-10-28T01:20:14.506Z,13.79
2022-10-28T01:23:18.491Z,13.71
2022-10-28T01:26:11.198Z,13.62
2022-10-28T01:29:01.886Z,13.52
2022-10-28T01:31:37.392Z,13.72
2022-10-28T01:34:12.964Z,13.57
2022-10-28T01:36:56.860Z,13.49
2022-10-28T01:39:48.070Z,13.42
2022-10-28T01:42:42.652Z,13.49
2022-10-28T01:45:08.941Z,13.46
2022-10-28T01:47:50.512Z,13.32
2022-10-28T01:50:30.082Z,13.33
2022-10-28T01:53:00.119Z,13.26
2022-10-28T01:55:33.020Z,13.27
2022-10-28T01:58:01.668Z,13.22
2022-10-28T02:00:29.873Z,13.35
2022-10-28T02:02:56.782Z,13.25
2022-10-28T02:05:44.376Z,13.30
2022-10-28T02:08:19.880Z,13.33
2022-10-28T02:11:26.743Z,13.32
2022-10-28T02:14:18.124Z,13.32
2022-10-28T02:17:19.545Z,13.28
2022-10-28T02:19:50.956Z,13.33
2022-10-28T02:22:51.261Z,13.43
2022-10-28T02:25:31.366Z,13.47
2022-10-28T02:28:02.972Z,13.47
2022-10-28T02:30:34.745Z,13.45
2022-10-28T02:33:04.789Z,13.52
2022-10-28T02:35:41.316Z,13.57
2022-10-28T02:38:12.707Z,13.66
2022-10-28T02:40:41.437Z,13.64
2022-10-28T02:43:10.543Z,13.74
2022-10-28T02:45:43.210Z,13.82
2022-10-28T02:48:26.152Z,13.88
2022-10-28T02:51:09.126Z,13.94
2022-10-28T02:54:10.964Z,13.96
2022-10-28T02:56:48.414Z,13.87
2022-10-28T02:59:14.860Z,13.91
2022-10-28T03:01:41.306Z,13.94
2022-10-28T03:04:07.888Z,13.88
2022-10-28T03:06:34.313Z,13.95
2022-10-28T03:09:00.682Z,13.93
2022-10-28T03:11:27.044Z,13.97
2022-10-28T03:13:53.513Z,13.97
2022-10-28T03:16:19.894Z,13.95
2022-10-28T03:18:46.278Z,13.93
2022-10-28T03:21:12.645Z,13.98
2022-10-28T03:23:38.986Z,13.97
2022-10-28T03:26:05.501Z,14.00
2022-10-28T03:28:31.893Z,13.93
2022-10-28T03:30:58.395Z,14.03
2022-10-28T03:33:24.759Z,13.99
2022-10-28T03:35:51.164Z,14.05
2022-10-28T03:38:17.508Z,14.07
2022-10-28T03:40:43.883Z,14.05
2022-10-28T03:43:10.212Z,14.08
2022-10-28T03:45:36.568Z,14.02
2022-10-28T03:48:03.047Z,14.10
2022-10-28T03:50:29.440Z,14.10
2022-10-28T03:52:55.822Z,14.07
2022-10-28T03:55:23.716Z,14.06
2022-10-28T03:57:50.067Z,14.07
2022-10-28T04:00:16.606Z,14.05
2022-10-28T04:02:43.045Z,14.02
2022-10-28T04:05:09.545Z,14.07
2022-10-28T04:07:35.967Z,14.03
2022-10-28T04:10:02.332Z,14.06
2022-10-28T04:12:28.693Z,14.05
2022-10-28T04:14:55.163Z,14.09
2022-10-28T04:17:21.631Z,13.98
2022-10-28T04:19:47.992Z,14.04
2022-10-28T04:22:14.357Z,14.02
2022-10-28T04:24:40.742Z,13.97
2022-10-28T04:27:07.236Z,13.98
2022-10-28T04:29:33.740Z,13.98
2022-10-28T04:32:00.099Z,13.94
2022-10-28T04:34:26.480Z,13.91
2022-10-28T04:36:53.206Z,13.89
2022-10-28T04:39:19.540Z,13.94
2022-10-28T04:41:45.964Z,13.96
2022-10-28T04:44:12.310Z,13.88
2022-10-28T04:46:39.238Z,13.87
2022-10-28T04:49:05.677Z,13.86
2022-10-28T04:51:32.049Z,13.76
2022-10-28T04:53:58.418Z,13.74
2022-10-28T04:56:24.851Z,13.73
2022-10-28T04:58:51.215Z,13.71
2022-10-28T05:01:17.745Z,13.74
2022-10-28T05:03:44.232Z,13.70
2022-10-28T05:06:10.578Z,13.60
2022-10-28T05:08:36.959Z,13.71
2022-10-28T05:11:03.324Z,13.54
2022-10-28T05:13:29.687Z,13.60
2022-10-28T05:15:56.052Z,13.43
2022-10-28T05:18:22.408Z,13.50
2022-10-28T05:20:52.726Z,13.49
2022-10-28T05:23:19.083Z,13.46
2022-10-28T05:25:45.427Z,13.43
2022-10-28T05:28:11.801Z,13.45
2022-10-28T05:30:38.157Z,13.42
2022-10-28T05:33:04.565Z,13.39
2022-10-28T05:35:31.353Z,13.46
2022-10-28T05:37:57.912Z,13.39
2022-10-28T05:40:24.512Z,13.40
2022-10-28T05:42:51.083Z,13.34
2022-10-28T05:45:17.920Z,13.42
2022-10-28T05:47:46.380Z,13.40
2022-10-28T05:50:13.997Z,13.42
2022-10-28T05:52:40.792Z,13.34
2022-10-28T05:55:07.408Z,13.39
2022-10-28T05:57:35.613Z,13.35
2022-10-28T06:00:02.777Z,13.39
2022-10-28T06:02:29.134Z,13.35
2022-10-28T06:04:55.539Z,13.43
2022-10-28T06:07:21.941Z,13.43
2022-10-28T06:09:48.328Z,13.47
2022-10-28T06:12:13.187Z,13.46
2022-10-28T06:14:39.531Z,13.51
2022-10-28T06:17:05.910Z,13.54
2022-10-28T06:19:32.319Z,13.55
2022-10-28T06:21:58.687Z,13.58
2022-10-28T06:24:25.091Z,13.53
2022-10-28T06:26:51.499Z,13.54
2022-10-28T06:29:18.923Z,13.57
2022-10-28T06:31:45.389Z,13.62
2022-10-28T06:34:12.026Z,13.55
2022-10-28T06:36:38.558Z,13.59
2022-10-28T06:39:05.737Z,13.81
2022-10-28T06:41:32.429Z,13.84
2022-10-28T06:43:59.108Z,13.75
2022-10-28T06:46:25.521Z,13.76
2022-10-28T06:48:54.756Z,13.79
2022-10-28T06:51:21.651Z,13.71
2022-10-28T06:53:52.123Z,13.59
2022-10-28T06:56:18.959Z,13.69
2022-10-28T06:58:50.711Z,13.69
2022-10-28T07:01:17.973Z,13.84
2022-10-28T07:03:44.531Z,13.86
2022-10-28T07:06:10.973Z,13.72
2022-10-28T07:08:37.403Z,13.74
2022-10-28T07:11:03.924Z,13.70
2022-10-28T07:13:30.321Z,13.68
2022-10-28T07:15:59.190Z,13.68
2022-10-28T07:18:27.944Z,13.63
2022-10-28T07:20:57.568Z,13.77
2022-10-28T07:23:24.092Z,13.77
2022-10-28T07:25:55.604Z,13.79
2022-10-28T07:28:23.648Z,13.86
2022-10-28T07:30:50.214Z,13.91
2022-10-28T07:33:16.666Z,13.95
2022-10-28T07:35:44.213Z,14.25
2022-10-28T07:38:10.888Z,14.21
2022-10-28T07:40:37.640Z,14.02
2022-10-28T07:43:03.998Z,14.02
2022-10-28T07:45:30.562Z,13.98
2022-10-28T07:47:56.993Z,13.89
2022-10-28T07:50:23.407Z,13.96
2022-10-28T07:52:49.855Z,13.93
2022-10-28T07:55:16.262Z,14.06
2022-10-28T07:57:42.647Z,14.06
2022-10-28T08:00:09.333Z,14.07
2022-10-28T08:02:35.769Z,14.11
2022-10-28T08:05:02.350Z,14.10
2022-10-28T08:07:28.859Z,14.06
2022-10-28T08:09:55.232Z,13.97
2022-10-28T08:12:21.589Z,14.06
2022-10-28T08:14:47.932Z,14.15
2022-10-28T08:17:14.310Z,14.13
2022-10-28T08:19:40.680Z,14.08
2022-10-28T08:22:07.503Z,14.09
2022-10-28T08:24:33.870Z,14.06
2022-10-28T08:27:01.495Z,14.11
2022-10-28T08:29:30.113Z,14.28
2022-10-28T08:31:57.756Z,14.27
2022-10-28T08:34:29.203Z,14.26
2022-10-28T08:36:56.478Z,14.23
2022-10-28T08:39:22.919Z,14.37
2022-10-28T08:41:59.783Z,14.35
2022-10-28T08:44:53.653Z,14.38
2022-10-28T08:47:32.285Z,14.42
2022-10-28T08:50:05.308Z,14.36
2022-10-28T08:52:34.242Z,14.46
2022-10-28T08:55:28.532Z,14.60
2022-10-28T08:58:04.326Z,14.80
2022-10-28T09:00:33.779Z,14.92
2022-10-28T09:03:12.374Z,15.10
2022-10-28T09:05:41.075Z,15.12
2022-10-28T09:08:21.465Z,15.29
2022-10-28T09:11:27.169Z,15.42
2022-10-28T09:14:07.916Z,15.54
2022-10-28T09:16:54.252Z,15.71
2022-10-28T09:19:58.028Z,15.84
2022-10-28T09:22:34.592Z,15.90
2022-10-28T09:25:04.838Z,16.01
2022-10-28T09:27:56.933Z,16.08
2022-10-28T09:30:57.030Z,16.04
2022-10-28T09:33:35.426Z,16.02
2022-10-28T09:36:05.364Z,15.96
2022-10-28T09:38:35.269Z,15.97
2022-10-28T09:41:06.389Z,15.95
2022-10-28T09:43:42.918Z,16.06
2022-10-28T09:46:15.306Z,16.08
2022-10-28T09:48:45.873Z,16.10
2022-10-28T09:51:24.587Z,16.10
2022-10-28T09:53:57.776Z,16.01
2022-10-28T09:56:25.419Z,16.19
2022-10-28T09:58:53.647Z,16.14
2022-10-28T10:01:20.470Z,16.20
2022-10-28T10:03:51.979Z,16.25
2022-10-28T10:06:25.842Z,16.29
2022-10-28T10:08:55.115Z,16.34
2022-10-28T10:11:32.917Z,16.51
2022-10-28T10:14:06.680Z,16.61
2022-10-28T10:16:32.972Z,16.72
2022-10-28T10:19:02.910Z,16.77
2022-10-28T10:21:52.694Z,16.91
2022-10-28T10:24:35.231Z,17.03
2022-10-28T10:27:10.774Z,17.24
2022-10-28T10:29:44.161Z,17.39
2022-10-28T10:32:22.615Z,17.52
2022-10-28T10:35:06.694Z,17.77
2022-10-28T10:37:41.186Z,17.77
2022-10-28T10:40:30.981Z,18.06
2022-10-28T10:43:17.258Z,18.24
2022-10-28T10:45:58.574Z,18.37
2022-10-28T10:48:25.235Z,18.49
2022-10-28T10:50:53.613Z,18.71
2022-10-28T10:53:21.547Z,18.71
2022-10-28T10:55:57.728Z,18.73
2022-10-28T10:58:28.663Z,18.85
2022-10-28T11:00:57.054Z,18.81
2022-10-28T11:03:28.330Z,18.86
2022-10-28T11:06:18.316Z,18.96
2022-10-28T11:08:44.310Z,18.88
2022-10-28T11:11:14.356Z,19.04
2022-10-28T11:13:45.076Z,19.07
2022-10-28T11:16:22.728Z,19.01
2022-10-28T11:18:51.788Z,18.96
2022-10-28T11:21:42.928Z,18.96
2022-10-28T11:24:24.471Z,19.07
2022-10-28T11:27:07.248Z,18.97
2022-10-28T11:29:33.729Z,19.01
2022-10-28T11:32:28.598Z,19.04
2022-10-28T11:35:06.864Z,19.16
2022-10-28T11:37:33.138Z,19.27
2022-10-28T11:40:05.544Z,19.27
2022-10-28T11:42:46.452Z,19.33
2022-10-28T11:45:30.967Z,19.43
2022-10-28T11:48:22.399Z,19.29
2022-10-28T11:51:08.688Z,19.30
2022-10-28T11:53:49.072Z,19.47
2022-10-28T11:56:24.434Z,19.30
2022-10-28T11:59:32.250Z,19.17
2022-10-28T12:02:15.114Z,19.15
2022-10-28T12:04:58.299Z,19.03
2022-10-28T12:07:39.811Z,19.00
2022-10-28T12:10:18.306Z,18.95
2022-10-28T12:12:57.905Z,18.93
2022-10-28T12:15:36.986Z,18.92
2022-10-28T12:18:29.758Z,18.84
2022-10-28T12:21:12.651Z,18.83
2022-10-28T12:23:41.865Z,18.73
2022-10-28T12:26:12.200Z,18.80
2022-10-28T12:28:49.354Z,18.77
2022-10-28T12:31:45.140Z,18.71
2022-10-28T12:34:22.445Z,18.66
2022-10-28T12:36:58.447Z,18.62
2022-10-28T12:39:27.367Z,18.58
2022-10-28T12:42:11.235Z,18.66
2022-10-28T12:44:38.838Z,18.59
2022-10-28T12:47:18.391Z,18.49
2022-10-28T12:50:09.311Z,18.49
2022-10-28T12:53:09.407Z,18.64
2022-10-28T12:55:59.418Z,18.63
2022-10-28T12:58:52.548Z,18.54
2022-10-28T13:01:22.244Z,18.60
2022-10-28T13:03:52.519Z,18.68
2022-10-28T13:06:29.793Z,18.78
2022-10-28T13:09:12.496Z,18.75
2022-10-28T13:11:47.780Z,18.89
2022-10-28T13:14:52.256Z,18.91
2022-10-28T13:17:28.791Z,19.11
2022-10-28T13:20:04.674Z,19.13
2022-10-28T13:23:20.283Z,19.23
2022-10-28T13:26:21.815Z,19.28
2022-10-28T13:28:51.991Z,19.27
2022-10-28T13:31:19.823Z,19.38
2022-10-28T13:33:51.232Z,19.29
2022-10-28T13:36:36.254Z,19.26
2022-10-28T13:39:05.969Z,19.30
2022-10-28T13:41:33.861Z,19.36
2022-10-28T13:44:20.453Z,19.39
2022-10-28T13:46:59.211Z,19.34
2022-10-28T13:49:30.145Z,19.35
2022-10-28T13:52:07.087Z,19.47
2022-10-28T13:54:39.437Z,19.54
2022-10-28T13:57:17.272Z,19.64
2022-10-28T13:59:51.757Z,19.73
2022-10-28T14:02:38.374Z,19.71
2022-10-28T14:05:11.495Z,19.60
2022-10-28T14:07:55.960Z,19.69
2022-10-28T14:10:32.828Z,19.58
2022-10-28T14:13:06.864Z,19.51
2022-10-28T14:15:38.675Z,19.42
2022-10-28T14:18:41.327Z,19.52
2022-10-28T14:21:01.706Z,19.35
2022-10-28T14:23:28.231Z,19.21
2022-10-28T14:25:54.617Z,19.05
2022-10-28T14:28:26.942Z,18.88
2022-10-28T14:31:08.807Z,18.78
2022-10-28T14:33:46.877Z,18.68
2022-10-28T14:36:22.099Z,18.60
2022-10-28T14:39:03.750Z,18.52
2022-10-28T14:42:04.311Z,18.40
2022-10-28T14:45:04.527Z,18.40
2022-10-28T14:47:36.913Z,18.43
2022-10-28T14:50:24.881Z,18.35
2022-10-28T14:52:55.551Z,18.24
2022-10-28T14:55:31.786Z,18.17
2022-10-28T14:58:16.686Z,18.20
2022-10-28T15:01:06.977Z,18.14
2022-10-28T15:03:33.878Z,18.02
2022-10-28T15:06:28.018Z,17.89
2022-10-28T15:08:55.711Z,17.80
2022-10-28T15:11:22.763Z,17.79
2022-10-28T15:13:52.482Z,17.71
2022-10-28T15:16:23.904Z,17.63
2022-10-28T15:18:53.337Z,17.60
2022-10-28T15:21:22.694Z,17.58
2022-10-28T15:24:02.104Z,17.50
2022-10-28T15:26:28.647Z,17.49
2022-10-28T15:28:55.714Z,17.42
2022-10-28T15:31:22.125Z,17.41
2022-10-28T15:33:48.503Z,17.36
2022-10-28T15:36:18.853Z,17.20
2022-10-28T15:39:01.932Z,17.17
2022-10-28T15:41:28.228Z,17.07
2022-10-28T15:43:59.762Z,17.04
2022-10-28T15:46:27.257Z,16.83
2022-10-28T15:48:55.095Z,16.84
2022-10-28T15:51:21.610Z,16.78
2022-10-28T15:53:54.048Z,16.65
2022-10-28T15:56:22.037Z,16.57
2022-10-28T15:58:58.817Z,16.53
2022-10-28T16:01:39.714Z,16.46
2022-10-28T16:04:23.352Z,16.47
2022-10-28T16:06:52.378Z,16.31
2022-10-28T16:09:30.089Z,16.27
2022-10-28T16:12:01.537Z,16.14
2022-10-28T16:14:37.823Z,16.04
2022-10-28T16:17:15.458Z,16.01
2022-10-28T16:19:53.192Z,15.95
2022-10-28T16:22:20.412Z,15.87
2022-10-28T16:24:46.999Z,15.93
2022-10-28T16:27:17.221Z,15.81
2022-10-28T16:29:43.736Z,15.77
2022-10-28T16:32:14.238Z,15.67
2022-10-28T16:34:41.371Z,15.54
2022-10-28T16:37:21.078Z,15.73
2022-10-28T16:39:47.519Z,15.58
2022-10-28T16:42:14.488Z,15.56
2022-10-28T16:44:40.890Z,15.47
2022-10-28T16:47:12.648Z,15.51
2022-10-28T16:49:40.186Z,15.40
2022-10-28T16:52:11.855Z,15.51
2022-10-28T16:54:38.192Z,15.44
2022-10-28T16:57:04.543Z,15.40
2022-10-28T16:59:30.942Z,15.32
2022-10-28T17:01:59.561Z,15.23
2022-10-28T17:04:26.322Z,15.11
2022-10-28T17:06:52.713Z,15.05
2022-10-28T17:09:19.094Z,14.97
2022-10-28T17:11:45.463Z,15.00
2022-10-28T17:14:11.851Z,15.01
2022-10-28T17:16:40.694Z,14.96
2022-10-28T17:19:09.659Z,14.88
2022-10-28T17:21:36.024Z,14.83
2022-10-28T17:24:03.842Z,14.84
2022-10-28T17:26:30.206Z,14.77
2022-10-28T17:28:56.551Z,14.70
2022-10-28T17:31:25.064Z,14.66
2022-10-28T17:33:55.449Z,14.67
2022-10-28T17:36:23.084Z,14.68
2022-10-28T17:38:49.494Z,14.57
2022-10-28T17:41:15.846Z,14.52
2022-10-28T17:43:42.389Z,14.50
2022-10-28T17:46:09.759Z,14.51
2022-10-28T17:48:36.250Z,14.54
2022-10-28T17:51:02.719Z,14.48
2022-10-28T17:53:29.118Z,14.44
2022-10-28T17:55:59.604Z,14.44
2022-10-28T17:58:26.542Z,14.37
2022-10-28T18:01:00.130Z,14.35
2022-10-28T18:03:27.631Z,14.26
2022-10-28T18:05:54.363Z,14.45
2022-10-28T18:08:21.096Z,14.29
2022-10-28T18:10:52.135Z,14.28
2022-10-28T18:13:18.876Z,14.38
2022-10-28T18:15:45.661Z,14.32
2022-10-28T18:18:12.019Z,14.36
2022-10-28T18:20:38.451Z,14.31
2022-10-28T18:23:04.792Z,14.35
2022-10-28T18:25:31.143Z,14.37
2022-10-28T18:27:57.517Z,14.42
2022-10-28T18:30:23.963Z,14.54
2022-10-28T18:32:50.324Z,14.57
2022-10-28T18:35:16.678Z,14.61
2022-10-28T18:37:43.043Z,14.76
2022-10-28T18:40:09.858Z,14.75
2022-10-28T18:42:36.219Z,14.89
2022-10-28T18:45:03.293Z,14.88
2022-10-28T18:47:30.220Z,14.89
2022-10-28T18:49:56.577Z,15.06
2022-10-28T18:52:22.948Z,15.09
2022-10-28T18:54:49.289Z,15.21
2022-10-28T18:57:16.908Z,15.12
2022-10-28T19:00:12.453Z,15.20
2022-10-28T19:02:29.742Z,15.36
2022-10-28T19:04:57.988Z,15.52
2022-10-28T19:07:24.322Z,15.65
2022-10-28T19:09:50.702Z,15.64
2022-10-28T19:12:17.072Z,15.81
2022-10-28T19:14:43.417Z,15.84
2022-10-28T19:17:09.821Z,16.01
2022-10-28T19:19:39.231Z,16.27
2022-10-28T19:22:08.048Z,16.56
2022-10-28T19:24:34.578Z,16.78
2022-10-28T19:27:00.942Z,16.76
2022-10-28T19:29:27.355Z,16.75
2022-10-28T19:31:53.747Z,16.75
2022-10-28T19:34:20.275Z,16.79
2022-10-28T19:36:46.613Z,16.77
2022-10-28T19:39:13.125Z,16.74
2022-10-28T19:41:39.506Z,16.61
2022-10-28T19:44:05.885Z,16.49
2022-10-28T19:46:34.411Z,16.71
2022-10-28T19:49:04.415Z,16.63
2022-10-28T19:51:33.624Z,16.80
2022-10-28T19:54:05.179Z,16.72
2022-10-28T19:56:33.288Z,16.62
2022-10-28T19:59:01.572Z,16.77
2022-10-28T20:01:30.691Z,16.57
2022-10-28T20:03:57.678Z,16.49
2022-10-28T20:06:31.740Z,16.44
2022-10-28T20:08:58.098Z,16.37
2022-10-28T20:11:29.884Z,16.28
2022-10-28T20:13:58.603Z,16.21
2022-10-28T20:16:25.445Z,16.24
2022-10-28T20:18:53.961Z,16.18
2022-10-28T20:21:22.085Z,16.17
2022-10-28T20:26:18.119Z,15.98
2022-10-28T20:28:44.491Z,15.91
2022-10-28T20:31:13.411Z,15.98
2022-10-28T20:33:41.614Z,15.95
2022-10-28T20:36:30.869Z,15.85
2022-10-28T20:39:02.269Z,15.73
2022-10-28T20:41:31.413Z,15.69
2022-10-28T20:43:58.209Z,15.56
2022-10-28T20:46:25.716Z,15.65
2022-10-28T20:48:54.188Z,15.56
2022-10-28T20:51:22.068Z,15.53
2022-10-28T20:53:48.622Z,15.41
2022-10-28T20:56:27.045Z,15.31
2022-10-28T20:58:54.636Z,15.16
2022-10-28T21:01:26.594Z,15.27
2022-10-28T21:03:58.199Z,15.25
2022-10-28T21:06:25.399Z,15.14
2022-10-28T21:08:53.457Z,15.04
2022-10-28T21:11:20.607Z,14.96
2022-10-28T21:13:54.700Z,14.96
2022-10-28T21:16:21.802Z,14.91
2022-10-28T21:18:48.762Z,14.87
2022-10-28T21:21:15.666Z,14.92
2022-10-28T21:23:42.063Z,14.86
2022-10-28T21:26:10.630Z,14.81
2022-10-28T21:28:37.255Z,14.86
2022-10-28T21:31:13.008Z,14.91
2022-10-28T21:33:40.885Z,14.96
2022-10-28T21:36:18.754Z,15.19
2022-10-28T21:38:45.264Z,15.32
2022-10-28T21:41:14.526Z,15.28
2022-10-28T21:43:43.419Z,15.44
2022-10-28T21:46:09.943Z,15.48
2022-10-28T21:48:37.807Z,15.40
2022-10-28T21:51:10.039Z,15.35
2022-10-28T21:53:40.312Z,15.23
2022-10-28T21:56:13.805Z,15.14
2022-10-28T21:58:42.892Z,15.16
2022-10-28T22:01:11.831Z,15.18
2022-10-28T22:03:39.136Z,15.13
2022-10-28T22:06:06.549Z,15.26
2022-10-28T22:08:33.407Z,15.27
2022-10-28T22:11:04.976Z,15.26
2022-10-28T22:13:31.758Z,15.30
2022-10-28T22:16:03.737Z,15.36
2022-10-28T22:18:32.042Z,15.50
2022-10-28T22:21:05.520Z,15.51
2022-10-28T22:23:31.931Z,15.63
2022-10-28T22:26:02.349Z,15.69
2022-10-28T22:28:28.907Z,15.87
2022-10-28T22:31:03.546Z,15.86
2022-10-28T22:33:30.076Z,15.98
2022-10-28T22:35:58.135Z,16.00
2022-10-28T22:38:24.787Z,15.96
2022-10-28T22:41:02.298Z,15.87
2022-10-28T22:43:28.666Z,15.88
2022-10-28T22:46:01.738Z,15.77
2022-10-28T22:48:28.919Z,15.68
2022-10-28T22:50:55.477Z,15.56
2022-10-28T22:53:22.772Z,15.60
2022-10-28T22:55:49.343Z,15.47
2022-10-28T22:58:16.656Z,15.49
2022-10-28T23:00:43.738Z,15.39
2022-10-28T23:03:10.244Z,15.33
2022-10-28T23:05:36.643Z,15.45
2022-10-28T23:08:03.184Z,15.46
2022-10-28T23:10:29.635Z,15.43
2022-10-28T23:13:00.656Z,15.66
2022-10-28T23:15:28.323Z,15.74
2022-10-28T23:17:55.792Z,15.92
2022-10-28T23:20:23.998Z,16.04
2022-10-28T23:22:50.758Z,16.01
2022-10-28T23:25:17.277Z,16.19
2022-10-28T23:27:44.440Z,16.14
2022-10-28T23:30:13.016Z,16.23
2022-10-28T23:32:40.194Z,16.14
2022-10-28T23:35:07.225Z,16.22
2022-10-28T23:37:33.664Z,16.20
2022-10-28T23:40:00.215Z,16.08
2022-10-28T23:42:26.646Z,16.07
2022-10-28T23:44:53.016Z,16.04
2022-10-28T23:47:19.590Z,15.97
2022-10-28T23:49:45.987Z,15.99
2022-10-28T23:52:12.387Z,15.91
2022-10-28T23:54:38.739Z,15.95
2022-10-28T23:57:05.101Z,16.03
2022-10-28T23:59:31.442Z,16.00
